sensor_id;sensor_type;location;lat;lon;timestamp;P1;durP1;ratioP1;P2;durP2;ratioP2
7527;SDS011;3805;49.006;8.514;2022-12-18T00:00:39;60.50;;;32.00;;
7527;SDS011;3805;49.006;8.514;2022-12-18T00:03:28;59.70;;;32.80;;
7527;SDS011;3805;49.006;8.514;2022-12-18T00:06:17;56.03;;;31.83;;
7527;SDS011;3805;49.006;8.514;2022-12-18T00:09:06;60.87;;;34.90;;
7527;SDS011;3805;49.006;8.514;2022-12-18T00:11:55;62.03;;;35.07;;
7527;SDS011;3805;49.006;8.514;2022-12-18T00:14:45;53.70;;;31.37;;
7527;SDS011;3805;49.006;8.514;2022-12-18T00:17:33;53.97;;;34.10;;
7527;SDS011;3805;49.006;8.514;2022-12-18T00:20:22;44.43;;;29.90;;
7527;SDS011;3805;49.006;8.514;2022-12-18T00:23:12;57.53;;;35.30;;
7527;SDS011;3805;49.006;8.514;2022-12-18T00:26:01;60.50;;;34.57;;
7527;SDS011;3805;49.006;8.514;2022-12-18T00:28:49;56.43;;;33.53;;
7527;SDS011;3805;49.006;8.514;2022-12-18T00:31:40;56.30;;;32.00;;
7527;SDS011;3805;49.006;8.514;2022-12-18T00:34:30;58.00;;;32.50;;
7527;SDS011;3805;49.006;8.514;2022-12-18T00:37:18;56.47;;;31.20;;
7527;SDS011;3805;49.006;8.514;2022-12-18T00:40:07;59.20;;;35.63;;
7527;SDS011;3805;49.006;8.514;2022-12-18T00:42:57;66.80;;;35.33;;
7527;SDS011;3805;49.006;8.514;2022-12-18T00:45:44;62.80;;;36.00;;
7527;SDS011;3805;49.006;8.514;2022-12-18T00:48:35;64.20;;;36.30;;
7527;SDS011;3805;49.006;8.514;2022-12-18T00:51:23;54.93;;;34.90;;
7527;SDS011;3805;49.006;8.514;2022-12-18T00:54:12;64.43;;;35.60;;
7527;SDS011;3805;49.006;8.514;2022-12-18T00:57:00;54.20;;;34.10;;
7527;SDS011;3805;49.006;8.514;2022-12-18T00:59:49;63.27;;;36.30;;
7527;SDS011;3805;49.006;8.514;2022-12-18T01:02:38;60.33;;;34.03;;
7527;SDS011;3805;49.006;8.514;2022-12-18T01:05:28;54.50;;;34.90;;
7527;SDS011;3805;49.006;8.514;2022-12-18T01:08:17;58.83;;;32.77;;
7527;SDS011;3805;49.006;8.514;2022-12-18T01:11:07;58.53;;;32.40;;
7527;SDS011;3805;49.006;8.514;2022-12-18T01:13:56;55.13;;;33.60;;
7527;SDS011;3805;49.006;8.514;2022-12-18T01:16:44;56.03;;;34.23;;
7527;SDS011;3805;49.006;8.514;2022-12-18T01:19:33;55.23;;;36.33;;
7527;SDS011;3805;49.006;8.514;2022-12-18T01:22:23;61.67;;;36.50;;
7527;SDS011;3805;49.006;8.514;2022-12-18T01:25:11;60.63;;;35.63;;
7527;SDS011;3805;49.006;8.514;2022-12-18T01:28:00;61.67;;;35.57;;
7527;SDS011;3805;49.006;8.514;2022-12-18T01:30:48;77.97;;;39.93;;
7527;SDS011;3805;49.006;8.514;2022-12-18T01:33:37;70.23;;;37.63;;
7527;SDS011;3805;49.006;8.514;2022-12-18T01:36:27;59.33;;;35.83;;
7527;SDS011;3805;49.006;8.514;2022-12-18T01:39:18;66.97;;;37.63;;
7527;SDS011;3805;49.006;8.514;2022-12-18T01:42:09;65.57;;;37.97;;
7527;SDS011;3805;49.006;8.514;2022-12-18T01:45:00;64.67;;;37.83;;
7527;SDS011;3805;49.006;8.514;2022-12-18T01:47:54;66.20;;;37.17;;
7527;SDS011;3805;49.006;8.514;2022-12-18T01:50:43;60.07;;;36.03;;
7527;SDS011;3805;49.006;8.514;2022-12-18T01:53:32;81.60;;;40.67;;
7527;SDS011;3805;49.006;8.514;2022-12-18T01:56:22;65.33;;;36.27;;
7527;SDS011;3805;49.006;8.514;2022-12-18T01:59:11;73.40;;;39.27;;
7527;SDS011;3805;49.006;8.514;2022-12-18T02:01:59;62.30;;;36.90;;
7527;SDS011;3805;49.006;8.514;2022-12-18T02:04:49;64.27;;;35.40;;
7527;SDS011;3805;49.006;8.514;2022-12-18T02:07:41;60.40;;;37.00;;
7527;SDS011;3805;49.006;8.514;2022-12-18T02:10:33;57.67;;;34.60;;
7527;SDS011;3805;49.006;8.514;2022-12-18T02:13:30;60.13;;;34.57;;
7527;SDS011;3805;49.006;8.514;2022-12-18T02:16:24;59.97;;;36.33;;
7527;SDS011;3805;49.006;8.514;2022-12-18T02:19:19;64.70;;;36.07;;
7527;SDS011;3805;49.006;8.514;2022-12-18T02:22:24;62.47;;;34.37;;
7527;SDS011;3805;49.006;8.514;2022-12-18T02:25:21;61.67;;;33.43;;
7527;SDS011;3805;49.006;8.514;2022-12-18T02:28:18;69.00;;;35.73;;
7527;SDS011;3805;49.006;8.514;2022-12-18T02:31:10;67.73;;;35.87;;
7527;SDS011;3805;49.006;8.514;2022-12-18T02:34:02;56.27;;;34.20;;
7527;SDS011;3805;49.006;8.514;2022-12-18T02:36:51;54.27;;;33.50;;
7527;SDS011;3805;49.006;8.514;2022-12-18T02:39:43;54.03;;;34.13;;
7527;SDS011;3805;49.006;8.514;2022-12-18T02:42:32;56.47;;;35.63;;
7527;SDS011;3805;49.006;8.514;2022-12-18T02:45:22;61.93;;;35.37;;
7527;SDS011;3805;49.006;8.514;2022-12-18T02:48:11;65.43;;;34.90;;
7527;SDS011;3805;49.006;8.514;2022-12-18T02:51:00;58.83;;;35.33;;
7527;SDS011;3805;49.006;8.514;2022-12-18T02:53:53;57.47;;;32.83;;
7527;SDS011;3805;49.006;8.514;2022-12-18T02:56:48;65.77;;;37.50;;
7527;SDS011;3805;49.006;8.514;2022-12-18T02:59:39;62.57;;;35.53;;
7527;SDS011;3805;49.006;8.514;2022-12-18T03:02:33;69.97;;;36.03;;
7527;SDS011;3805;49.006;8.514;2022-12-18T03:05:27;61.40;;;35.93;;
7527;SDS011;3805;49.006;8.514;2022-12-18T03:08:20;64.33;;;36.90;;
7527;SDS011;3805;49.006;8.514;2022-12-18T03:11:10;62.93;;;36.60;;
7527;SDS011;3805;49.006;8.514;2022-12-18T03:14:00;70.27;;;38.27;;
7527;SDS011;3805;49.006;8.514;2022-12-18T03:16:50;64.67;;;38.90;;
7527;SDS011;3805;49.006;8.514;2022-12-18T03:19:42;68.63;;;37.33;;
7527;SDS011;3805;49.006;8.514;2022-12-18T03:22:32;60.13;;;35.50;;
7527;SDS011;3805;49.006;8.514;2022-12-18T03:25:21;66.90;;;38.97;;
7527;SDS011;3805;49.006;8.514;2022-12-18T03:28:12;66.83;;;35.30;;
7527;SDS011;3805;49.006;8.514;2022-12-18T03:31:02;65.17;;;38.00;;
7527;SDS011;3805;49.006;8.514;2022-12-18T03:33:53;61.00;;;35.33;;
7527;SDS011;3805;49.006;8.514;2022-12-18T03:36:44;63.93;;;35.20;;
7527;SDS011;3805;49.006;8.514;2022-12-18T03:39:33;58.03;;;34.70;;
7527;SDS011;3805;49.006;8.514;2022-12-18T03:42:23;58.27;;;35.83;;
7527;SDS011;3805;49.006;8.514;2022-12-18T03:45:18;49.50;;;30.77;;
7527;SDS011;3805;49.006;8.514;2022-12-18T03:48:10;58.43;;;33.77;;
7527;SDS011;3805;49.006;8.514;2022-12-18T03:51:04;55.03;;;32.93;;
7527;SDS011;3805;49.006;8.514;2022-12-18T03:53:57;52.77;;;31.60;;
7527;SDS011;3805;49.006;8.514;2022-12-18T03:56:48;60.50;;;33.73;;
7527;SDS011;3805;49.006;8.514;2022-12-18T03:59:41;67.60;;;36.30;;
7527;SDS011;3805;49.006;8.514;2022-12-18T04:02:31;58.70;;;33.37;;
7527;SDS011;3805;49.006;8.514;2022-12-18T04:05:21;58.77;;;35.47;;
7527;SDS011;3805;49.006;8.514;2022-12-18T04:08:11;66.43;;;35.13;;
7527;SDS011;3805;49.006;8.514;2022-12-18T04:11:01;55.43;;;33.20;;
7527;SDS011;3805;49.006;8.514;2022-12-18T04:13:52;55.57;;;33.90;;
7527;SDS011;3805;49.006;8.514;2022-12-18T04:16:43;53.73;;;34.53;;
7527;SDS011;3805;49.006;8.514;2022-12-18T04:19:32;58.53;;;32.80;;
7527;SDS011;3805;49.006;8.514;2022-12-18T04:22:20;57.43;;;35.57;;
7527;SDS011;3805;49.006;8.514;2022-12-18T04:25:09;60.60;;;36.30;;
7527;SDS011;3805;49.006;8.514;2022-12-18T04:28:01;63.73;;;36.90;;
7527;SDS011;3805;49.006;8.514;2022-12-18T04:30:50;65.40;;;36.73;;
7527;SDS011;3805;49.006;8.514;2022-12-18T04:33:39;65.33;;;36.03;;
7527;SDS011;3805;49.006;8.514;2022-12-18T04:36:28;66.07;;;37.67;;
7527;SDS011;3805;49.006;8.514;2022-12-18T04:39:16;65.70;;;37.70;;
7527;SDS011;3805;49.006;8.514;2022-12-18T04:42:05;59.40;;;34.00;;
7527;SDS011;3805;49.006;8.514;2022-12-18T04:44:55;64.20;;;32.87;;
7527;SDS011;3805;49.006;8.514;2022-12-18T04:47:43;60.27;;;33.10;;
7527;SDS011;3805;49.006;8.514;2022-12-18T04:50:32;60.03;;;36.10;;
7527;SDS011;3805;49.006;8.514;2022-12-18T04:53:20;69.80;;;35.67;;
7527;SDS011;3805;49.006;8.514;2022-12-18T04:56:09;74.10;;;35.53;;
7527;SDS011;3805;49.006;8.514;2022-12-18T04:58:58;65.47;;;34.17;;
7527;SDS011;3805;49.006;8.514;2022-12-18T05:01:48;75.83;;;38.33;;
7527;SDS011;3805;49.006;8.514;2022-12-18T05:04:37;65.87;;;36.63;;
7527;SDS011;3805;49.006;8.514;2022-12-18T05:07:25;65.40;;;37.47;;
7527;SDS011;3805;49.006;8.514;2022-12-18T05:10:14;78.73;;;38.33;;
7527;SDS011;3805;49.006;8.514;2022-12-18T05:13:02;86.10;;;36.23;;
7527;SDS011;3805;49.006;8.514;2022-12-18T05:15:51;66.03;;;36.00;;
7527;SDS011;3805;49.006;8.514;2022-12-18T05:18:41;66.30;;;36.80;;
7527;SDS011;3805;49.006;8.514;2022-12-18T05:21:29;67.73;;;36.70;;
7527;SDS011;3805;49.006;8.514;2022-12-18T05:24:18;67.33;;;37.70;;
7527;SDS011;3805;49.006;8.514;2022-12-18T05:27:06;70.97;;;37.17;;
7527;SDS011;3805;49.006;8.514;2022-12-18T05:29:55;67.67;;;39.03;;
7527;SDS011;3805;49.006;8.514;2022-12-18T05:32:43;66.90;;;34.33;;
7527;SDS011;3805;49.006;8.514;2022-12-18T05:35:33;70.30;;;40.30;;
7527;SDS011;3805;49.006;8.514;2022-12-18T05:38:22;65.93;;;34.83;;
7527;SDS011;3805;49.006;8.514;2022-12-18T05:41:11;67.20;;;35.23;;
7527;SDS011;3805;49.006;8.514;2022-12-18T05:44:00;70.50;;;37.97;;
7527;SDS011;3805;49.006;8.514;2022-12-18T05:46:48;68.80;;;36.13;;
7527;SDS011;3805;49.006;8.514;2022-12-18T05:49:37;69.53;;;36.07;;
7527;SDS011;3805;49.006;8.514;2022-12-18T05:52:27;67.97;;;35.23;;
7527;SDS011;3805;49.006;8.514;2022-12-18T05:55:15;65.37;;;33.40;;
7527;SDS011;3805;49.006;8.514;2022-12-18T05:58:04;66.57;;;35.83;;
7527;SDS011;3805;49.006;8.514;2022-12-18T06:00:53;70.47;;;34.17;;
7527;SDS011;3805;49.006;8.514;2022-12-18T06:03:41;67.57;;;35.90;;
7527;SDS011;3805;49.006;8.514;2022-12-18T06:06:30;71.07;;;34.60;;
7527;SDS011;3805;49.006;8.514;2022-12-18T06:09:20;67.47;;;34.63;;
7527;SDS011;3805;49.006;8.514;2022-12-18T06:12:09;73.83;;;37.77;;
7527;SDS011;3805;49.006;8.514;2022-12-18T06:14:57;75.20;;;36.17;;
7527;SDS011;3805;49.006;8.514;2022-12-18T06:17:46;62.70;;;36.07;;
7527;SDS011;3805;49.006;8.514;2022-12-18T06:20:35;73.03;;;34.50;;
7527;SDS011;3805;49.006;8.514;2022-12-18T06:23:26;75.10;;;34.87;;
7527;SDS011;3805;49.006;8.514;2022-12-18T06:26:16;71.47;;;36.00;;
7527;SDS011;3805;49.006;8.514;2022-12-18T06:29:12;74.43;;;36.23;;
7527;SDS011;3805;49.006;8.514;2022-12-18T06:32:00;69.97;;;35.37;;
7527;SDS011;3805;49.006;8.514;2022-12-18T06:34:49;66.37;;;36.20;;
7527;SDS011;3805;49.006;8.514;2022-12-18T06:37:37;71.17;;;33.87;;
7527;SDS011;3805;49.006;8.514;2022-12-18T06:40:26;67.50;;;35.50;;
7527;SDS011;3805;49.006;8.514;2022-12-18T06:43:17;63.83;;;33.63;;
7527;SDS011;3805;49.006;8.514;2022-12-18T06:46:08;62.47;;;31.10;;
7527;SDS011;3805;49.006;8.514;2022-12-18T06:48:57;66.80;;;36.13;;
7527;SDS011;3805;49.006;8.514;2022-12-18T06:51:46;81.80;;;35.17;;
7527;SDS011;3805;49.006;8.514;2022-12-18T06:54:35;61.90;;;35.83;;
7527;SDS011;3805;49.006;8.514;2022-12-18T06:57:23;67.63;;;33.40;;
7527;SDS011;3805;49.006;8.514;2022-12-18T07:00:13;61.47;;;34.80;;
7527;SDS011;3805;49.006;8.514;2022-12-18T07:03:05;62.53;;;33.37;;
7527;SDS011;3805;49.006;8.514;2022-12-18T07:05:54;61.40;;;34.93;;
7527;SDS011;3805;49.006;8.514;2022-12-18T07:08:42;62.87;;;32.97;;
7527;SDS011;3805;49.006;8.514;2022-12-18T07:11:32;70.30;;;36.50;;
7527;SDS011;3805;49.006;8.514;2022-12-18T07:14:20;73.27;;;35.73;;
7527;SDS011;3805;49.006;8.514;2022-12-18T07:17:10;74.70;;;37.13;;
7527;SDS011;3805;49.006;8.514;2022-12-18T07:19:59;69.10;;;36.03;;
7527;SDS011;3805;49.006;8.514;2022-12-18T07:22:47;59.67;;;33.33;;
7527;SDS011;3805;49.006;8.514;2022-12-18T07:25:42;65.97;;;33.40;;
7527;SDS011;3805;49.006;8.514;2022-12-18T07:28:30;59.40;;;35.53;;
7527;SDS011;3805;49.006;8.514;2022-12-18T07:31:20;67.93;;;37.20;;
7527;SDS011;3805;49.006;8.514;2022-12-18T07:34:11;66.53;;;34.43;;
7527;SDS011;3805;49.006;8.514;2022-12-18T07:36:59;57.93;;;34.93;;
7527;SDS011;3805;49.006;8.514;2022-12-18T07:39:48;66.50;;;34.70;;
7527;SDS011;3805;49.006;8.514;2022-12-18T07:42:37;61.53;;;35.47;;
7527;SDS011;3805;49.006;8.514;2022-12-18T07:45:26;71.33;;;36.27;;
7527;SDS011;3805;49.006;8.514;2022-12-18T07:48:14;64.37;;;34.63;;
7527;SDS011;3805;49.006;8.514;2022-12-18T07:51:05;61.17;;;34.43;;
7527;SDS011;3805;49.006;8.514;2022-12-18T07:53:54;65.87;;;35.30;;
7527;SDS011;3805;49.006;8.514;2022-12-18T07:56:42;59.03;;;32.83;;
7527;SDS011;3805;49.006;8.514;2022-12-18T07:59:31;59.00;;;34.90;;
7527;SDS011;3805;49.006;8.514;2022-12-18T08:02:20;79.60;;;36.60;;
7527;SDS011;3805;49.006;8.514;2022-12-18T08:05:08;66.57;;;37.57;;
7527;SDS011;3805;49.006;8.514;2022-12-18T08:07:58;72.57;;;38.63;;
7527;SDS011;3805;49.006;8.514;2022-12-18T08:10:47;73.20;;;36.80;;
7527;SDS011;3805;49.006;8.514;2022-12-18T08:13:35;66.17;;;35.00;;
7527;SDS011;3805;49.006;8.514;2022-12-18T08:16:24;68.03;;;35.90;;
7527;SDS011;3805;49.006;8.514;2022-12-18T08:19:13;62.57;;;34.93;;
7527;SDS011;3805;49.006;8.514;2022-12-18T08:22:02;87.63;;;38.50;;
7527;SDS011;3805;49.006;8.514;2022-12-18T08:24:52;74.33;;;37.50;;
7527;SDS011;3805;49.006;8.514;2022-12-18T08:27:40;77.17;;;37.03;;
7527;SDS011;3805;49.006;8.514;2022-12-18T08:30:29;75.57;;;38.13;;
7527;SDS011;3805;49.006;8.514;2022-12-18T08:33:17;71.53;;;40.10;;
7527;SDS011;3805;49.006;8.514;2022-12-18T08:36:09;72.70;;;36.67;;
7527;SDS011;3805;49.006;8.514;2022-12-18T08:38:58;70.70;;;35.87;;
7527;SDS011;3805;49.006;8.514;2022-12-18T08:41:47;73.73;;;38.47;;
7527;SDS011;3805;49.006;8.514;2022-12-18T08:44:56;71.77;;;39.80;;
7527;SDS011;3805;49.006;8.514;2022-12-18T08:47:44;71.33;;;37.70;;
7527;SDS011;3805;49.006;8.514;2022-12-18T08:50:33;73.73;;;37.73;;
7527;SDS011;3805;49.006;8.514;2022-12-18T08:53:22;67.30;;;36.30;;
7527;SDS011;3805;49.006;8.514;2022-12-18T08:56:20;75.40;;;37.60;;
7527;SDS011;3805;49.006;8.514;2022-12-18T08:59:10;72.10;;;36.50;;
7527;SDS011;3805;49.006;8.514;2022-12-18T09:02:06;67.63;;;35.33;;
7527;SDS011;3805;49.006;8.514;2022-12-18T09:04:59;76.03;;;37.73;;
7527;SDS011;3805;49.006;8.514;2022-12-18T09:07:48;74.60;;;36.97;;
7527;SDS011;3805;49.006;8.514;2022-12-18T09:10:41;79.93;;;40.23;;
7527;SDS011;3805;49.006;8.514;2022-12-18T09:13:31;75.13;;;37.43;;
7527;SDS011;3805;49.006;8.514;2022-12-18T09:16:22;73.00;;;38.50;;
7527;SDS011;3805;49.006;8.514;2022-12-18T09:19:21;64.03;;;35.03;;
7527;SDS011;3805;49.006;8.514;2022-12-18T09:22:13;66.90;;;34.20;;
7527;SDS011;3805;49.006;8.514;2022-12-18T09:25:03;69.30;;;36.33;;
7527;SDS011;3805;49.006;8.514;2022-12-18T09:27:55;72.83;;;37.67;;
7527;SDS011;3805;49.006;8.514;2022-12-18T09:30:44;64.60;;;33.60;;
7527;SDS011;3805;49.006;8.514;2022-12-18T09:33:36;70.63;;;35.80;;
7527;SDS011;3805;49.006;8.514;2022-12-18T09:36:26;70.63;;;38.23;;
7527;SDS011;3805;49.006;8.514;2022-12-18T09:39:19;69.03;;;36.87;;
7527;SDS011;3805;49.006;8.514;2022-12-18T09:42:10;58.27;;;33.27;;
7527;SDS011;3805;49.006;8.514;2022-12-18T09:45:07;56.67;;;33.33;;
7527;SDS011;3805;49.006;8.514;2022-12-18T09:47:57;63.87;;;33.43;;
7527;SDS011;3805;49.006;8.514;2022-12-18T09:50:47;59.03;;;32.20;;
7527;SDS011;3805;49.006;8.514;2022-12-18T09:53:37;59.83;;;34.57;;
7527;SDS011;3805;49.006;8.514;2022-12-18T09:56:26;64.70;;;34.47;;
7527;SDS011;3805;49.006;8.514;2022-12-18T09:59:18;51.17;;;33.47;;
7527;SDS011;3805;49.006;8.514;2022-12-18T10:02:14;53.20;;;31.97;;
7527;SDS011;3805;49.006;8.514;2022-12-18T10:05:05;59.10;;;35.87;;
7527;SDS011;3805;49.006;8.514;2022-12-18T10:07:59;69.90;;;38.97;;
7527;SDS011;3805;49.006;8.514;2022-12-18T10:10:51;68.10;;;39.23;;
7527;SDS011;3805;49.006;8.514;2022-12-18T10:13:42;66.53;;;35.20;;
7527;SDS011;3805;49.006;8.514;2022-12-18T10:16:36;67.07;;;36.20;;
7527;SDS011;3805;49.006;8.514;2022-12-18T10:19:35;75.57;;;36.63;;
7527;SDS011;3805;49.006;8.514;2022-12-18T10:22:36;65.33;;;36.80;;
7527;SDS011;3805;49.006;8.514;2022-12-18T10:25:31;66.17;;;35.60;;
7527;SDS011;3805;49.006;8.514;2022-12-18T10:28:23;72.73;;;39.10;;
7527;SDS011;3805;49.006;8.514;2022-12-18T10:31:12;67.13;;;37.13;;
7527;SDS011;3805;49.006;8.514;2022-12-18T10:34:04;67.70;;;38.10;;
7527;SDS011;3805;49.006;8.514;2022-12-18T10:36:53;67.10;;;36.97;;
7527;SDS011;3805;49.006;8.514;2022-12-18T10:39:42;58.17;;;34.47;;
7527;SDS011;3805;49.006;8.514;2022-12-18T10:42:32;67.67;;;39.03;;
7527;SDS011;3805;49.006;8.514;2022-12-18T10:45:20;68.33;;;37.90;;
7527;SDS011;3805;49.006;8.514;2022-12-18T10:48:17;71.37;;;38.70;;
7527;SDS011;3805;49.006;8.514;2022-12-18T10:51:06;59.43;;;35.40;;
7527;SDS011;3805;49.006;8.514;2022-12-18T10:53:59;67.17;;;35.77;;
7527;SDS011;3805;49.006;8.514;2022-12-18T10:56:52;61.83;;;37.97;;
7527;SDS011;3805;49.006;8.514;2022-12-18T11:00:25;63.43;;;37.33;;
7527;SDS011;3805;49.006;8.514;2022-12-18T11:06:21;69.93;;;38.47;;
7527;SDS011;3805;49.006;8.514;2022-12-18T11:09:19;67.80;;;36.80;;
7527;SDS011;3805;49.006;8.514;2022-12-18T11:12:14;66.53;;;36.93;;
7527;SDS011;3805;49.006;8.514;2022-12-18T11:15:04;72.47;;;37.93;;
7527;SDS011;3805;49.006;8.514;2022-12-18T11:17:54;61.30;;;36.60;;
7527;SDS011;3805;49.006;8.514;2022-12-18T11:20:43;67.27;;;35.40;;
7527;SDS011;3805;49.006;8.514;2022-12-18T11:23:46;68.67;;;36.80;;
7527;SDS011;3805;49.006;8.514;2022-12-18T11:26:35;57.20;;;32.20;;
7527;SDS011;3805;49.006;8.514;2022-12-18T11:29:31;58.13;;;37.50;;
7527;SDS011;3805;49.006;8.514;2022-12-18T11:32:30;61.10;;;35.20;;
7527;SDS011;3805;49.006;8.514;2022-12-18T11:35:23;62.27;;;35.10;;
7527;SDS011;3805;49.006;8.514;2022-12-18T11:38:20;67.33;;;34.93;;
7527;SDS011;3805;49.006;8.514;2022-12-18T11:41:13;64.70;;;35.47;;
7527;SDS011;3805;49.006;8.514;2022-12-18T11:44:04;70.90;;;35.03;;
7527;SDS011;3805;49.006;8.514;2022-12-18T11:46:56;64.00;;;36.83;;
7527;SDS011;3805;49.006;8.514;2022-12-18T11:49:49;64.00;;;36.37;;
7527;SDS011;3805;49.006;8.514;2022-12-18T11:52:40;71.93;;;35.57;;
7527;SDS011;3805;49.006;8.514;2022-12-18T11:55:31;59.97;;;36.30;;
7527;SDS011;3805;49.006;8.514;2022-12-18T11:58:32;65.80;;;36.73;;
7527;SDS011;3805;49.006;8.514;2022-12-18T12:01:34;58.67;;;35.70;;
7527;SDS011;3805;49.006;8.514;2022-12-18T12:04:34;68.17;;;40.10;;
7527;SDS011;3805;49.006;8.514;2022-12-18T12:07:54;64.03;;;36.30;;
7527;SDS011;3805;49.006;8.514;2022-12-18T12:10:50;69.83;;;37.97;;
7527;SDS011;3805;49.006;8.514;2022-12-18T12:13:51;73.67;;;38.87;;
7527;SDS011;3805;49.006;8.514;2022-12-18T12:16:46;68.33;;;35.77;;
7527;SDS011;3805;49.006;8.514;2022-12-18T12:19:40;68.13;;;37.93;;
7527;SDS011;3805;49.006;8.514;2022-12-18T12:22:36;61.83;;;37.03;;
7527;SDS011;3805;49.006;8.514;2022-12-18T12:25:33;62.93;;;38.10;;
7527;SDS011;3805;49.006;8.514;2022-12-18T12:28:31;65.33;;;40.90;;
7527;SDS011;3805;49.006;8.514;2022-12-18T12:31:34;69.30;;;37.27;;
7527;SDS011;3805;49.006;8.514;2022-12-18T12:34:37;71.30;;;35.47;;
7527;SDS011;3805;49.006;8.514;2022-12-18T12:37:32;64.80;;;40.53;;
7527;SDS011;3805;49.006;8.514;2022-12-18T12:40:26;63.97;;;38.77;;
7527;SDS011;3805;49.006;8.514;2022-12-18T12:43:37;65.40;;;38.30;;
7527;SDS011;3805;49.006;8.514;2022-12-18T12:46:36;74.43;;;39.10;;
7527;SDS011;3805;49.006;8.514;2022-12-18T12:49:28;64.40;;;37.67;;
7527;SDS011;3805;49.006;8.514;2022-12-18T12:52:28;66.90;;;37.57;;
7527;SDS011;3805;49.006;8.514;2022-12-18T12:55:20;65.40;;;38.53;;
7527;SDS011;3805;49.006;8.514;2022-12-18T12:58:14;68.93;;;38.97;;
7527;SDS011;3805;49.006;8.514;2022-12-18T13:01:10;73.50;;;39.40;;
7527;SDS011;3805;49.006;8.514;2022-12-18T13:04:12;65.13;;;36.07;;
7527;SDS011;3805;49.006;8.514;2022-12-18T13:07:10;69.30;;;36.90;;
7527;SDS011;3805;49.006;8.514;2022-12-18T13:10:19;66.40;;;39.57;;
7527;SDS011;3805;49.006;8.514;2022-12-18T13:13:13;63.77;;;39.10;;
7527;SDS011;3805;49.006;8.514;2022-12-18T13:16:11;72.70;;;38.93;;
7527;SDS011;3805;49.006;8.514;2022-12-18T13:18:59;61.23;;;37.83;;
7527;SDS011;3805;49.006;8.514;2022-12-18T13:21:51;62.33;;;38.33;;
7527;SDS011;3805;49.006;8.514;2022-12-18T13:24:41;65.80;;;37.83;;
7527;SDS011;3805;49.006;8.514;2022-12-18T13:27:46;65.90;;;39.30;;
7527;SDS011;3805;49.006;8.514;2022-12-18T13:30:53;63.63;;;39.67;;
7527;SDS011;3805;49.006;8.514;2022-12-18T13:33:45;69.83;;;41.20;;
7527;SDS011;3805;49.006;8.514;2022-12-18T13:36:55;70.90;;;40.57;;
7527;SDS011;3805;49.006;8.514;2022-12-18T13:39:46;68.23;;;39.10;;
7527;SDS011;3805;49.006;8.514;2022-12-18T13:42:38;66.87;;;37.63;;
7527;SDS011;3805;49.006;8.514;2022-12-18T13:45:45;67.93;;;40.77;;
7527;SDS011;3805;49.006;8.514;2022-12-18T13:48:35;70.30;;;39.93;;
7527;SDS011;3805;49.006;8.514;2022-12-18T13:51:27;64.20;;;39.50;;
7527;SDS011;3805;49.006;8.514;2022-12-18T13:54:18;66.40;;;37.27;;
7527;SDS011;3805;49.006;8.514;2022-12-18T13:57:25;65.00;;;37.27;;
7527;SDS011;3805;49.006;8.514;2022-12-18T14:00:23;61.57;;;37.83;;
7527;SDS011;3805;49.006;8.514;2022-12-18T14:03:16;65.83;;;39.47;;
7527;SDS011;3805;49.006;8.514;2022-12-18T14:06:08;60.10;;;37.50;;
7527;SDS011;3805;49.006;8.514;2022-12-18T14:09:02;65.77;;;41.80;;
7527;SDS011;3805;49.006;8.514;2022-12-18T14:11:55;69.20;;;40.00;;
7527;SDS011;3805;49.006;8.514;2022-12-18T14:15:05;80.73;;;42.97;;
7527;SDS011;3805;49.006;8.514;2022-12-18T14:17:57;78.43;;;42.63;;
7527;SDS011;3805;49.006;8.514;2022-12-18T14:20:47;72.87;;;44.30;;
7527;SDS011;3805;49.006;8.514;2022-12-18T14:23:40;71.57;;;40.20;;
7527;SDS011;3805;49.006;8.514;2022-12-18T14:26:31;70.00;;;41.60;;
7527;SDS011;3805;49.006;8.514;2022-12-18T14:29:22;71.73;;;41.03;;
7527;SDS011;3805;49.006;8.514;2022-12-18T14:32:13;64.10;;;39.23;;
7527;SDS011;3805;49.006;8.514;2022-12-18T14:35:12;73.27;;;43.30;;
7527;SDS011;3805;49.006;8.514;2022-12-18T14:38:14;67.10;;;42.20;;
7527;SDS011;3805;49.006;8.514;2022-12-18T14:41:09;63.40;;;42.60;;
7527;SDS011;3805;49.006;8.514;2022-12-18T14:44:06;72.77;;;42.60;;
7527;SDS011;3805;49.006;8.514;2022-12-18T14:46:56;65.93;;;41.20;;
7527;SDS011;3805;49.006;8.514;2022-12-18T14:49:44;74.60;;;44.57;;
7527;SDS011;3805;49.006;8.514;2022-12-18T14:52:33;75.63;;;43.17;;
7527;SDS011;3805;49.006;8.514;2022-12-18T14:55:21;67.60;;;41.70;;
7527;SDS011;3805;49.006;8.514;2022-12-18T14:58:10;67.30;;;42.03;;
7527;SDS011;3805;49.006;8.514;2022-12-18T15:01:03;73.03;;;41.53;;
7527;SDS011;3805;49.006;8.514;2022-12-18T15:03:52;67.43;;;41.13;;
7527;SDS011;3805;49.006;8.514;2022-12-18T15:06:41;74.03;;;44.40;;
7527;SDS011;3805;49.006;8.514;2022-12-18T15:09:31;69.67;;;41.13;;
7527;SDS011;3805;49.006;8.514;2022-12-18T15:12:22;72.70;;;39.57;;
7527;SDS011;3805;49.006;8.514;2022-12-18T15:18:35;78.83;;;41.73;;
7527;SDS011;3805;49.006;8.514;2022-12-18T15:21:29;68.43;;;42.20;;
7527;SDS011;3805;49.006;8.514;2022-12-18T15:24:26;70.30;;;42.20;;
7527;SDS011;3805;49.006;8.514;2022-12-18T15:27:31;77.77;;;43.27;;
7527;SDS011;3805;49.006;8.514;2022-12-18T15:30:21;71.43;;;43.63;;
7527;SDS011;3805;49.006;8.514;2022-12-18T15:33:20;68.20;;;42.03;;
7527;SDS011;3805;49.006;8.514;2022-12-18T15:36:14;74.73;;;43.63;;
7527;SDS011;3805;49.006;8.514;2022-12-18T15:39:12;63.47;;;40.57;;
7527;SDS011;3805;49.006;8.514;2022-12-18T15:42:01;72.40;;;42.33;;
7527;SDS011;3805;49.006;8.514;2022-12-18T15:45:10;78.77;;;40.50;;
7527;SDS011;3805;49.006;8.514;2022-12-18T15:47:59;70.33;;;42.83;;
7527;SDS011;3805;49.006;8.514;2022-12-18T15:50:48;64.33;;;40.70;;
7527;SDS011;3805;49.006;8.514;2022-12-18T15:53:39;74.67;;;41.87;;
7527;SDS011;3805;49.006;8.514;2022-12-18T15:56:28;81.70;;;44.37;;
7527;SDS011;3805;49.006;8.514;2022-12-18T15:59:34;75.37;;;42.57;;
7527;SDS011;3805;49.006;8.514;2022-12-18T16:02:22;83.00;;;44.93;;
7527;SDS011;3805;49.006;8.514;2022-12-18T16:05:11;80.93;;;42.97;;
7527;SDS011;3805;49.006;8.514;2022-12-18T16:08:03;71.30;;;43.03;;
7527;SDS011;3805;49.006;8.514;2022-12-18T16:10:53;76.40;;;41.90;;
7527;SDS011;3805;49.006;8.514;2022-12-18T16:13:43;75.90;;;44.87;;
7527;SDS011;3805;49.006;8.514;2022-12-18T16:16:32;78.53;;;43.83;;
7527;SDS011;3805;49.006;8.514;2022-12-18T16:19:20;78.23;;;44.93;;
7527;SDS011;3805;49.006;8.514;2022-12-18T16:22:15;76.07;;;47.63;;
7527;SDS011;3805;49.006;8.514;2022-12-18T16:25:08;89.17;;;49.47;;
7527;SDS011;3805;49.006;8.514;2022-12-18T16:28:01;72.70;;;45.07;;
7527;SDS011;3805;49.006;8.514;2022-12-18T16:30:49;82.30;;;49.07;;
7527;SDS011;3805;49.006;8.514;2022-12-18T16:33:38;107.43;;;55.83;;
7527;SDS011;3805;49.006;8.514;2022-12-18T16:36:27;88.53;;;48.40;;
7527;SDS011;3805;49.006;8.514;2022-12-18T16:39:16;84.83;;;47.47;;
7527;SDS011;3805;49.006;8.514;2022-12-18T16:42:05;85.97;;;47.30;;
7527;SDS011;3805;49.006;8.514;2022-12-18T16:44:58;77.57;;;47.37;;
7527;SDS011;3805;49.006;8.514;2022-12-18T16:47:46;74.73;;;49.90;;
7527;SDS011;3805;49.006;8.514;2022-12-18T16:50:36;81.77;;;49.73;;
7527;SDS011;3805;49.006;8.514;2022-12-18T16:53:24;89.00;;;48.60;;
7527;SDS011;3805;49.006;8.514;2022-12-18T16:56:13;86.27;;;48.83;;
7527;SDS011;3805;49.006;8.514;2022-12-18T16:59:02;81.47;;;49.30;;
7527;SDS011;3805;49.006;8.514;2022-12-18T17:01:53;82.87;;;49.47;;
7527;SDS011;3805;49.006;8.514;2022-12-18T17:04:42;77.47;;;47.37;;
7527;SDS011;3805;49.006;8.514;2022-12-18T17:07:31;78.23;;;45.57;;
7527;SDS011;3805;49.006;8.514;2022-12-18T17:10:21;76.37;;;46.70;;
7527;SDS011;3805;49.006;8.514;2022-12-18T17:13:10;81.00;;;48.23;;
7527;SDS011;3805;49.006;8.514;2022-12-18T17:16:01;84.67;;;48.77;;
7527;SDS011;3805;49.006;8.514;2022-12-18T17:18:52;80.83;;;46.90;;
7527;SDS011;3805;49.006;8.514;2022-12-18T17:21:41;80.33;;;48.80;;